Time;durP1;ratioP1;P1;durP2;ratioP2;P2;SDS_P1;SDS_P2;PMS_P1;PMS_P2;Temp;Humidity;BMP_temperature;BMP_pressure;BME280_temperature;BME280_humidity;BME280_pressure;Samples;Min_cycle;Max_cycle;Signal;HPM_P1;HPM_P2
2022/04/13 00:02:48;;;;;;;9.03;3.63;;;;;;;;;;6268665;22;20212;-87
2022/04/13 00:05:55;;;;;;;7.33;3.50;;;;;;;;;;6267431;22;20170;-87
2022/04/13 00:09:00;;;;;;;7.50;3.70;;;;;;;;;;6269289;22;20204;-87
2022/04/13 00:12:06;;;;;;;10.43;3.43;;;;;;;;;;6268943;22;20161;-87
2022/04/13 00:15:11;;;;;;;10.37;3.17;;;;;;;;;;6268919;22;20170;-87
2022/04/13 00:18:17;;;;;;;8.57;3.73;;;;;;;;;;6270486;22;20194;-89
2022/04/13 00:21:22;;;;;;;8.17;3.40;;;;;;;;;;6269111;22;20169;-87
2022/04/13 00:24:28;;;;;;;6.40;3.07;;;;;;;;;;6271192;22;20688;-86
2022/04/13 00:27:33;;;;;;;6.73;3.23;;;;;;;;;;6273347;22;20220;-87
2022/04/13 00:30:39;;;;;;;6.80;3.50;;;;;;;;;;6272216;22;20154;-88
2022/04/13 00:33:45;;;;;;;7.83;3.63;;;;;;;;;;6272899;22;20189;-87
2022/04/13 00:36:50;;;;;;;12.90;4.10;;;;;;;;;;6272539;22;20194;-86
2022/04/13 00:39:55;;;;;;;11.47;3.60;;;;;;;;;;6270726;22;20162;-88
2022/04/13 00:43:15;;;;;;;8.27;4.00;;;;;;;;;;6272092;22;20210;-87
2022/04/13 00:46:21;;;;;;;8.73;3.20;;;;;;;;;;6271456;22;20221;-88
2022/04/13 00:49:27;;;;;;;8.90;4.17;;;;;;;;;;6271860;22;20349;-88
2022/04/13 00:52:35;;;;;;;14.53;4.10;;;;;;;;;;6272921;22;20150;-88
2022/04/13 00:55:42;;;;;;;8.73;4.13;;;;;;;;;;6270742;22;20226;-88
2022/04/13 00:58:47;;;;;;;8.63;3.67;;;;;;;;;;6271728;22;20165;-87
2022/04/13 01:01:53;;;;;;;7.13;3.73;;;;;;;;;;6290902;22;20162;-88
2022/04/13 01:05:03;;;;;;;11.20;4.30;;;;;;;;;;6272197;22;20154;-88
2022/04/13 01:08:10;;;;;;;10.27;4.10;;;;;;;;;;6273127;22;20173;-88
2022/04/13 01:11:15;;;;;;;7.70;3.83;;;;;;;;;;6272096;22;20165;-88
2022/04/13 01:14:20;;;;;;;7.23;4.03;;;;;;;;;;6269900;22;20220;-86
2022/04/13 01:17:25;;;;;;;8.80;4.03;;;;;;;;;;6271228;22;20177;-87
2022/04/13 01:20:42;;;;;;;;;;;;;;;;;;;;;
2022/04/13 01:27:56;;;;;;;12.80;3.83;;;;;;;;;;6273044;22;20158;-88
2022/04/13 01:31:01;;;;;;;9.10;4.00;;;;;;;;;;6269782;22;20170;-88
2022/04/13 01:34:07;;;;;;;7.47;4.20;;;;;;;;;;6270705;22;20178;-87
2022/04/13 01:37:12;;;;;;;10.10;3.97;;;;;;;;;;6270371;22;20193;-87
2022/04/13 01:40:17;;;;;;;8.70;3.90;;;;;;;;;;6268248;22;20285;-87
2022/04/13 01:43:24;;;;;;;10.80;4.17;;;;;;;;;;6268325;22;20162;-88
2022/04/13 01:46:29;;;;;;;9.30;4.10;;;;;;;;;;6270117;22;20214;-87
2022/04/13 01:49:33;;;;;;;9.23;4.47;;;;;;;;;;6269303;22;20181;-87
2022/04/13 01:52:38;;;;;;;9.60;5.17;;;;;;;;;;6268748;22;20614;-87
2022/04/13 01:55:43;;;;;;;10.40;4.93;;;;;;;;;;6267749;22;20512;-88
2022/04/13 01:58:50;;;;;;;12.00;5.27;;;;;;;;;;6267135;22;20266;-87
2022/04/13 02:01:55;;;;;;;15.97;4.57;;;;;;;;;;6267877;22;20598;-87
2022/04/13 02:04:59;;;;;;;11.00;5.13;;;;;;;;;;6269471;22;20185;-87
2022/04/13 02:08:05;;;;;;;10.33;4.80;;;;;;;;;;6269534;22;20532;-87
2022/04/13 02:11:10;;;;;;;10.07;4.87;;;;;;;;;;6270685;22;20201;-87
2022/04/13 02:14:17;;;;;;;12.90;4.93;;;;;;;;;;6266972;22;20157;-87
2022/04/13 02:17:22;;;;;;;12.50;4.73;;;;;;;;;;6269223;22;20241;-86
2022/04/13 02:20:27;;;;;;;13.43;4.87;;;;;;;;;;6287341;22;20204;-87
2022/04/13 02:23:32;;;;;;;22.23;7.73;;;;;;;;;;6269184;22;20166;-87
2022/04/13 02:26:37;;;;;;;11.63;5.37;;;;;;;;;;6286992;22;20165;-87
2022/04/13 02:29:46;;;;;;;15.17;5.27;;;;;;;;;;6268477;22;20605;-87
2022/04/13 02:32:51;;;;;;;17.27;5.40;;;;;;;;;;6267399;22;20178;-88
2022/04/13 02:35:56;;;;;;;12.93;5.57;;;;;;;;;;6269599;22;20161;-86
2022/04/13 02:39:01;;;;;;;12.37;5.20;;;;;;;;;;6269673;22;20197;-87
2022/04/13 02:42:07;;;;;;;10.87;4.90;;;;;;;;;;6270599;22;20213;-87
2022/04/13 02:45:14;;;;;;;12.43;5.80;;;;;;;;;;6270633;22;20162;-88
2022/04/13 02:48:19;;;;;;;8.97;5.00;;;;;;;;;;6268860;22;20162;-86
2022/04/13 02:51:24;;;;;;;12.77;5.30;;;;;;;;;;6270782;22;20194;-87
2022/04/13 02:54:29;;;;;;;10.40;4.60;;;;;;;;;;6271194;22;20243;-87
2022/04/13 02:57:34;;;;;;;12.33;5.10;;;;;;;;;;6268627;22;20569;-87
2022/04/13 03:00:41;;;;;;;8.43;4.50;;;;;;;;;;6268952;22;20189;-87
2022/04/13 03:03:46;;;;;;;9.13;4.47;;;;;;;;;;6268502;22;20162;-87
2022/04/13 03:06:51;;;;;;;11.97;4.30;;;;;;;;;;6266541;22;20178;-87
2022/04/13 03:09:56;;;;;;;10.57;4.77;;;;;;;;;;6269674;22;20142;-87
2022/04/13 03:13:03;;;;;;;10.33;4.30;;;;;;;;;;6269265;22;20220;-88
2022/04/13 03:16:11;;;;;;;11.07;4.47;;;;;;;;;;6269119;22;20533;-87
2022/04/13 03:19:18;;;;;;;9.70;4.53;;;;;;;;;;6268664;22;20209;-86
2022/04/13 03:22:24;;;;;;;12.93;4.07;;;;;;;;;;6267909;22;20162;-87
2022/04/13 03:25:29;;;;;;;12.87;4.37;;;;;;;;;;6287854;22;20154;-87
2022/04/13 03:28:34;;;;;;;11.70;4.67;;;;;;;;;;6268315;22;20190;-86
2022/04/13 03:31:40;;;;;;;22.03;4.40;;;;;;;;;;6270505;22;20625;-87
2022/04/13 03:34:46;;;;;;;19.13;4.70;;;;;;;;;;6266011;22;20269;-87
2022/04/13 03:37:51;;;;;;;9.63;4.17;;;;;;;;;;6266256;22;20218;-86
2022/04/13 03:40:56;;;;;;;9.13;4.13;;;;;;;;;;6266700;22;20149;-87
2022/04/13 03:44:00;;;;;;;12.33;4.10;;;;;;;;;;6269090;22;20209;-86
2022/04/13 03:47:07;;;;;;;11.80;4.60;;;;;;;;;;6267860;22;20165;-87
2022/04/13 03:50:12;;;;;;;12.40;4.27;;;;;;;;;;6269109;22;20165;-86
2022/04/13 03:53:18;;;;;;;10.70;4.73;;;;;;;;;;6268371;22;20170;-86
2022/04/13 03:56:23;;;;;;;11.27;4.57;;;;;;;;;;6267662;22;20166;-87
2022/04/13 03:59:28;;;;;;;16.27;4.73;;;;;;;;;;6271815;22;20197;-87
2022/04/13 04:02:36;;;;;;;8.90;4.50;;;;;;;;;;6268931;22;20169;-87
2022/04/13 04:05:42;;;;;;;12.03;4.53;;;;;;;;;;6268711;22;20212;-88
2022/04/13 04:08:48;;;;;;;11.37;4.90;;;;;;;;;;6268036;22;20215;-87
2022/04/13 04:11:52;;;;;;;11.23;5.20;;;;;;;;;;6268989;22;20170;-88
2022/04/13 04:15:00;;;;;;;9.73;4.80;;;;;;;;;;6286083;22;20166;-88
2022/04/13 04:18:06;;;;;;;15.53;4.57;;;;;;;;;;6266993;22;20224;-87
2022/04/13 04:21:12;;;;;;;13.20;5.20;;;;;;;;;;6268051;22;20220;-87
2022/04/13 04:24:16;;;;;;;13.23;4.77;;;;;;;;;;6266236;22;20613;-87
2022/04/13 04:27:22;;;;;;;13.17;5.20;;;;;;;;;;6266618;22;20185;-88
2022/04/13 04:30:28;;;;;;;14.00;4.63;;;;;;;;;;6270435;22;20238;-88
2022/04/13 04:33:39;;;;;;;10.20;5.20;;;;;;;;;;6266427;22;20235;-88
2022/04/13 04:36:46;;;;;;;12.40;5.43;;;;;;;;;;6285052;22;20240;-88
2022/04/13 04:39:51;;;;;;;15.07;6.87;;;;;;;;;;6267415;22;20170;-87
2022/04/13 04:42:58;;;;;;;12.83;5.40;;;;;;;;;;6269280;22;20236;-87
2022/04/13 04:46:07;;;;;;;13.27;5.37;;;;;;;;;;6267118;22;20169;-88
2022/04/13 04:49:13;;;;;;;15.17;6.57;;;;;;;;;;6267184;22;20170;-87
2022/04/13 04:52:19;;;;;;;13.00;5.53;;;;;;;;;;6268725;22;20166;-87
2022/04/13 04:55:24;;;;;;;15.27;5.10;;;;;;;;;;6285837;22;20193;-87
2022/04/13 04:58:29;;;;;;;10.43;5.17;;;;;;;;;;6286093;22;20205;-87
2022/04/13 05:01:34;;;;;;;8.50;4.50;;;;;;;;;;6266002;22;20209;-87
2022/04/13 05:04:39;;;;;;;9.50;4.40;;;;;;;;;;6268803;22;20209;-86
2022/04/13 05:07:46;;;;;;;11.00;4.63;;;;;;;;;;6266170;22;20166;-87
2022/04/13 05:10:51;;;;;;;7.90;4.00;;;;;;;;;;6266316;22;20201;-86
2022/04/13 05:13:57;;;;;;;9.50;4.20;;;;;;;;;;6267959;22;20170;-87
2022/04/13 05:17:02;;;;;;;11.50;4.53;;;;;;;;;;6266201;22;20169;-87
2022/04/13 05:20:08;;;;;;;9.60;4.50;;;;;;;;;;6288981;22;20174;-87
2022/04/13 05:23:16;;;;;;;16.93;4.40;;;;;;;;;;6268845;22;20252;-87
2022/04/13 05:26:21;;;;;;;15.77;4.83;;;;;;;;;;6267386;22;20286;-87
2022/04/13 05:29:26;;;;;;;9.90;4.93;;;;;;;;;;6269113;22;20176;-86
2022/04/13 05:32:31;;;;;;;10.43;4.60;;;;;;;;;;6267728;22;20166;-86
2022/04/13 05:35:37;;;;;;;8.97;4.10;;;;;;;;;;6270649;22;20178;-87
2022/04/13 05:38:43;;;;;;;8.37;4.40;;;;;;;;;;6268668;22;20181;-87
2022/04/13 05:41:48;;;;;;;7.33;4.20;;;;;;;;;;6270072;22;20173;-85
2022/04/13 05:44:53;;;;;;;11.03;4.67;;;;;;;;;;6268073;22;20174;-86
2022/04/13 05:47:58;;;;;;;7.73;3.83;;;;;;;;;;6269250;22;20621;-86
2022/04/13 05:51:03;;;;;;;10.13;4.53;;;;;;;;;;6268824;22;20173;-86
2022/04/13 05:54:10;;;;;;;12.50;5.70;;;;;;;;;;6268891;22;20216;-86
2022/04/13 05:57:15;;;;;;;14.43;4.57;;;;;;;;;;6272063;22;20162;-85
2022/04/13 06:00:20;;;;;;;8.53;3.83;;;;;;;;;;6271751;22;20632;-87
2022/04/13 06:03:26;;;;;;;10.00;4.07;;;;;;;;;;6289639;22;20173;-85
2022/04/13 06:06:32;;;;;;;8.30;4.10;;;;;;;;;;6268930;22;20188;-87
2022/04/13 06:09:41;;;;;;;13.57;4.17;;;;;;;;;;6267139;22;20239;-88
2022/04/13 06:12:48;;;;;;;9.90;3.63;;;;;;;;;;6267993;22;20196;-88
2022/04/13 06:15:53;;;;;;;20.33;4.90;;;;;;;;;;6269155;22;20166;-89
2022/04/13 06:18:58;;;;;;;5.97;3.67;;;;;;;;;;6270182;22;20190;-87
2022/04/13 06:22:03;;;;;;;19.67;4.97;;;;;;;;;;6268924;22;20166;-88
2022/04/13 06:25:11;;;;;;;6.57;3.90;;;;;;;;;;6270306;22;20158;-88
2022/04/13 06:28:16;;;;;;;10.67;4.50;;;;;;;;;;6268926;22;20230;-87
2022/04/13 06:31:21;;;;;;;11.13;5.00;;;;;;;;;;6268674;22;20181;-88
2022/04/13 06:34:27;;;;;;;12.00;4.60;;;;;;;;;;6270495;22;20165;-86
2022/04/13 06:37:32;;;;;;;14.60;4.90;;;;;;;;;;6270371;22;20192;-87
2022/04/13 06:40:39;;;;;;;8.65;4.60;;;;;;;;;;6273904;22;20201;-87
2022/04/13 06:43:45;;;;;;;9.95;4.15;;;;;;;;;;6274648;22;20232;-88
2022/04/13 06:46:54;;;;;;;15.48;5.18;;;;;;;;;;6276909;22;20170;-87
2022/04/13 06:50:01;;;;;;;10.27;4.70;;;;;;;;;;6276414;22;20157;-84
2022/04/13 06:53:09;;;;;;;12.73;4.47;;;;;;;;;;6292866;22;20493;-88
2022/04/13 06:56:16;;;;;;;10.77;5.05;;;;;;;;;;6271848;22;20204;-87
2022/04/13 06:59:21;;;;;;;17.08;4.65;;;;;;;;;;6268095;22;20205;-87
2022/04/13 07:02:27;;;;;;;8.45;4.50;;;;;;;;;;6269673;22;20174;-88
2022/04/13 07:05:32;;;;;;;18.73;5.47;;;;;;;;;;6269319;22;20501;-88
2022/04/13 07:08:37;;;;;;;16.73;6.25;;;;;;;;;;6272967;22;20241;-86
2022/04/13 07:11:44;;;;;;;11.43;5.25;;;;;;;;;;6268160;22;20288;-88
2022/04/13 07:14:49;;;;;;;13.35;5.28;;;;;;;;;;6267426;22;20165;-88
2022/04/13 07:17:56;;;;;;;12.02;4.60;;;;;;;;;;6267121;22;20228;-88
2022/04/13 07:21:01;;;;;;;17.75;4.80;;;;;;;;;;6267732;22;20239;-88
2022/04/13 07:24:08;;;;;;;13.55;5.85;;;;;;;;;;6270352;22;20169;-87
2022/04/13 07:27:14;;;;;;;10.80;4.78;;;;;;;;;;6269419;22;20170;-87
2022/04/13 07:30:21;;;;;;;14.73;4.65;;;;;;;;;;6269041;22;20170;-88
2022/04/13 07:33:27;;;;;;;9.00;4.53;;;;;;;;;;6295853;22;20166;-88
2022/04/13 07:36:38;;;;;;;16.75;6.50;;;;;;;;;;6274005;22;20154;-88
2022/04/13 07:39:43;;;;;;;13.60;5.32;;;;;;;;;;6270755;22;20198;-88
2022/04/13 07:42:50;;;;;;;16.30;4.97;;;;;;;;;;6269963;22;20171;-87
2022/04/13 07:45:55;;;;;;;15.07;5.10;;;;;;;;;;6268471;22;20178;-87
2022/04/13 07:49:00;;;;;;;14.20;7.20;;;;;;;;;;6269671;22;20165;-87
2022/04/13 07:52:14;;;;;;;10.43;4.95;;;;;;;;;;6270981;22;20181;-87
2022/04/13 07:55:19;;;;;;;9.48;5.10;;;;;;;;;;6270633;22;20149;-85
2022/04/13 07:58:27;;;;;;;8.90;4.75;;;;;;;;;;6270036;22;20201;-88
2022/04/13 08:01:32;;;;;;;12.70;4.70;;;;;;;;;;6270409;22;20181;-88
2022/04/13 08:04:37;;;;;;;13.20;5.47;;;;;;;;;;6273241;22;20287;-88
2022/04/13 08:07:43;;;;;;;12.15;4.97;;;;;;;;;;6273601;22;20189;-89
2022/04/13 08:10:49;;;;;;;11.00;5.18;;;;;;;;;;6268672;22;20165;-87
2022/04/13 08:13:57;;;;;;;12.00;4.80;;;;;;;;;;6269494;22;20177;-88
2022/04/13 08:17:03;;;;;;;12.20;5.00;;;;;;;;;;6268743;22;20170;-89
2022/04/13 08:20:11;;;;;;;10.73;4.82;;;;;;;;;;6271516;22;20154;-87
2022/04/13 08:23:17;;;;;;;10.65;4.82;;;;;;;;;;6274456;22;20165;-87
2022/04/13 08:26:23;;;;;;;18.38;5.25;;;;;;;;;;6274878;22;20166;-88
2022/04/13 08:29:29;;;;;;;15.65;4.32;;;;;;;;;;6274821;22;20612;-87
2022/04/13 08:32:36;;;;;;;10.50;4.20;;;;;;;;;;6273569;22;20533;-86
2022/04/13 08:35:42;;;;;;;10.13;4.47;;;;;;;;;;6271865;22;20610;-90
2022/04/13 08:38:47;;;;;;;10.85;3.95;;;;;;;;;;6272692;22;20170;-89
2022/04/13 08:41:57;;;;;;;10.20;4.00;;;;;;;;;;6272381;22;20213;-88
2022/04/13 08:48:29;;;;;;;11.98;4.65;;;;;;;;;;6275615;22;20170;-87
2022/04/13 08:51:34;;;;;;;9.93;4.70;;;;;;;;;;6274128;22;20220;-88
2022/04/13 08:54:42;;;;;;;8.65;4.45;;;;;;;;;;6274861;22;20169;-87
2022/04/13 08:57:50;;;;;;;11.32;4.60;;;;;;;;;;6272717;22;20150;-87
2022/04/13 09:00:57;;;;;;;12.00;4.82;;;;;;;;;;6271860;22;20193;-88
2022/04/13 09:04:10;;;;;;;10.75;4.90;;;;;;;;;;6274377;22;20170;-87
2022/04/13 09:07:20;;;;;;;10.98;4.63;;;;;;;;;;6274038;22;20157;-87
2022/04/13 09:10:27;;;;;;;13.48;5.05;;;;;;;;;;6274388;22;20569;-88
2022/04/13 09:13:33;;;;;;;11.43;4.30;;;;;;;;;;6274683;22;20493;-88
2022/04/13 09:16:43;;;;;;;10.32;4.80;;;;;;;;;;6275484;22;20174;-87
2022/04/13 09:19:49;;;;;;;17.30;6.95;;;;;;;;;;6273202;22;20217;-88
2022/04/13 09:22:57;;;;;;;12.10;4.50;;;;;;;;;;6275281;22;20157;-88
2022/04/13 09:26:03;;;;;;;9.63;4.50;;;;;;;;;;6275832;22;20229;-86
2022/04/13 09:29:09;;;;;;;9.68;4.50;;;;;;;;;;6274308;22;20259;-89
2022/04/13 09:32:16;;;;;;;11.50;5.00;;;;;;;;;;6272996;22;20170;-88
2022/04/13 09:35:22;;;;;;;12.07;5.22;;;;;;;;;;6272774;22;20166;-87
2022/04/13 09:38:29;;;;;;;7.50;4.43;;;;;;;;;;6272620;22;20170;-89
2022/04/13 09:41:34;;;;;;;10.27;5.10;;;;;;;;;;6273731;22;20165;-87
2022/04/13 09:44:42;;;;;;;15.93;5.07;;;;;;;;;;6272032;22;20501;-89
2022/04/13 09:47:51;;;;;;;11.85;4.45;;;;;;;;;;6272926;22;20169;-89
2022/04/13 09:50:58;;;;;;;11.20;5.03;;;;;;;;;;6273563;22;20193;-88
2022/04/13 09:54:05;;;;;;;10.82;4.43;;;;;;;;;;6274109;22;20170;-87
2022/04/13 09:57:22;;;;;;;11.95;4.68;;;;;;;;;;6272462;22;20243;-89
2022/04/13 10:00:27;;;;;;;10.50;4.53;;;;;;;;;;6272865;22;20189;-87
2022/04/13 10:03:34;;;;;;;11.73;4.80;;;;;;;;;;6270680;22;20300;-88
2022/04/13 10:06:40;;;;;;;18.48;6.13;;;;;;;;;;6269619;22;20170;-88
2022/04/13 10:09:45;;;;;;;12.43;4.88;;;;;;;;;;6291611;22;20228;-89
2022/04/13 10:12:51;;;;;;;11.38;5.10;;;;;;;;;;6275194;22;20215;-88
2022/04/13 10:15:58;;;;;;;13.10;4.68;;;;;;;;;;6271809;22;20682;-88
2022/04/13 10:19:05;;;;;;;9.75;4.43;;;;;;;;;;6292063;22;20173;-87
2022/04/13 10:22:19;;;;;;;9.02;4.20;;;;;;;;;;6277370;22;20181;-89
2022/04/13 10:25:26;;;;;;;14.45;4.72;;;;;;;;;;6275295;22;20189;-89
2022/04/13 10:28:32;;;;;;;15.50;4.30;;;;;;;;;;6273899;22;20612;-87
2022/04/13 10:31:36;;;;;;;16.25;4.47;;;;;;;;;;6276532;22;20173;-91
2022/04/13 10:34:44;;;;;;;8.65;3.88;;;;;;;;;;6274161;22;20169;-88
2022/04/13 10:37:51;;;;;;;14.38;4.40;;;;;;;;;;6276301;22;20231;-89
2022/04/13 10:40:57;;;;;;;11.38;4.38;;;;;;;;;;6275113;22;20561;-89
2022/04/13 10:44:02;;;;;;;7.10;3.88;;;;;;;;;;6273958;22;20486;-88
2022/04/13 10:47:10;;;;;;;12.50;4.32;;;;;;;;;;6300458;22;20223;-87
2022/04/13 10:50:29;;;;;;;14.05;4.10;;;;;;;;;;6256653;22;20189;-88
2022/04/13 10:53:37;;;;;;;6.78;3.80;;;;;;;;;;6272591;22;20173;-89
2022/04/13 10:56:48;;;;;;;7.63;3.75;;;;;;;;;;6273163;22;20168;-88
2022/04/13 10:59:53;;;;;;;18.30;5.15;;;;;;;;;;6272201;22;20188;-88
2022/04/13 11:03:00;;;;;;;15.88;4.03;;;;;;;;;;6274321;22;20188;-89
2022/04/13 11:06:07;;;;;;;6.47;3.47;;;;;;;;;;6292504;22;20505;-88
2022/04/13 11:09:15;;;;;;;9.45;3.78;;;;;;;;;;6272681;22;20217;-89
2022/04/13 11:12:23;;;;;;;6.82;3.28;;;;;;;;;;6274715;22;20153;-89
2022/04/13 11:15:42;;;;;;;8.18;3.78;;;;;;;;;;6275586;22;20169;-89
2022/04/13 11:19:15;;;;;;;7.53;3.17;;;;;;;;;;6274972;22;20165;-88
2022/04/13 11:22:35;;;;;;;4.90;3.35;;;;;;;;;;6277171;22;20512;-90
2022/04/13 11:25:47;;;;;;;6.43;3.03;;;;;;;;;;6276054;22;20169;-90
2022/04/13 11:29:07;;;;;;;11.70;3.28;;;;;;;;;;6274621;22;20181;-86
2022/04/13 11:32:14;;;;;;;8.43;3.47;;;;;;;;;;6278323;22;20189;-89
2022/04/13 11:35:25;;;;;;;5.38;3.42;;;;;;;;;;6277873;22;20875;-89
2022/04/13 11:38:36;;;;;;;6.40;3.58;;;;;;;;;;6294513;22;20169;-89
2022/04/13 11:41:51;;;;;;;7.32;3.15;;;;;;;;;;6272624;22;20165;-89
2022/04/13 11:45:02;;;;;;;4.57;2.88;;;;;;;;;;6274851;22;20204;-88
2022/04/13 11:48:08;;;;;;;4.93;2.97;;;;;;;;;;6274258;22;20192;-88
2022/04/13 11:51:29;;;;;;;10.38;3.58;;;;;;;;;;6272620;22;20189;-91
2022/04/13 11:54:47;;;;;;;9.00;3.60;;;;;;;;;;6270389;22;20170;-88
2022/04/13 11:58:07;;;;;;;8.90;3.17;;;;;;;;;;6273327;22;20162;-90
2022/04/13 12:01:25;;;;;;;7.95;3.75;;;;;;;;;;6273587;22;20181;-88
2022/04/13 12:04:32;;;;;;;7.28;3.40;;;;;;;;;;6275719;22;20236;-88
2022/04/13 12:10:57;;;;;;;11.65;3.00;;;;;;;;;;6272236;22;20308;-89
2022/04/13 12:14:04;;;;;;;6.10;3.30;;;;;;;;;;6272238;22;20164;-88
2022/04/13 12:17:11;;;;;;;9.00;3.70;;;;;;;;;;6272854;22;20214;-89
2022/04/13 12:20:28;;;;;;;7.82;3.25;;;;;;;;;;6270944;22;20176;-88
2022/04/13 12:23:48;;;;;;;6.05;3.10;;;;;;;;;;6275198;22;20216;-89
2022/04/13 12:27:02;;;;;;;11.00;3.55;;;;;;;;;;6273643;22;20268;-90
2022/04/13 12:30:12;;;;;;;14.45;3.28;;;;;;;;;;6275374;22;20189;-88
2022/04/13 12:33:23;;;;;;;8.40;3.10;;;;;;;;;;6276842;22;20184;-88
2022/04/13 12:36:28;;;;;;;4.80;2.95;;;;;;;;;;6294426;22;20168;-90
2022/04/13 12:39:35;;;;;;;9.48;2.85;;;;;;;;;;6276413;22;20655;-88
2022/04/13 12:42:41;;;;;;;5.50;3.00;;;;;;;;;;6274438;22;20166;-89
2022/04/13 12:45:46;;;;;;;7.72;3.00;;;;;;;;;;6275568;22;20197;-88
2022/04/13 12:48:53;;;;;;;7.85;3.20;;;;;;;;;;6277187;22;20191;-88
2022/04/13 12:51:59;;;;;;;6.25;3.47;;;;;;;;;;6274649;22;20192;-86
2022/04/13 12:55:05;;;;;;;7.38;3.33;;;;;;;;;;6283505;22;20153;-86
2022/04/13 12:58:10;;;;;;;8.93;2.92;;;;;;;;;;6274087;22;20221;-88
2022/04/13 13:01:27;;;;;;;6.70;2.60;;;;;;;;;;6272748;22;20552;-90
2022/04/13 13:04:42;;;;;;;9.35;3.28;;;;;;;;;;6271450;22;20165;-88
2022/04/13 13:07:48;;;;;;;8.60;2.70;;;;;;;;;;6272377;22;20170;-88
2022/04/13 13:10:53;;;;;;;11.43;3.50;;;;;;;;;;6273577;22;20176;-87
2022/04/13 13:14:09;;;;;;;6.45;3.22;;;;;;;;;;6273548;22;20220;-89
2022/04/13 13:17:18;;;;;;;14.48;3.47;;;;;;;;;;6275103;22;20213;-88
2022/04/13 13:20:24;;;;;;;10.63;3.03;;;;;;;;;;6273071;22;20612;-89
2022/04/13 13:23:30;;;;;;;9.02;3.33;;;;;;;;;;6272025;22;20157;-90
2022/04/13 13:26:36;;;;;;;4.47;2.83;;;;;;;;;;6272909;22;20161;-88
2022/04/13 13:29:43;;;;;;;7.95;3.75;;;;;;;;;;6275053;22;20290;-90
2022/04/13 13:32:50;;;;;;;9.63;3.10;;;;;;;;;;6273996;22;20168;-90
2022/04/13 13:35:56;;;;;;;7.22;3.47;;;;;;;;;;6275021;22;20165;-88
2022/04/13 13:39:02;;;;;;;7.72;2.92;;;;;;;;;;6275339;22;20169;-88
2022/04/13 13:42:09;;;;;;;8.18;3.25;;;;;;;;;;6273107;22;20173;-88
2022/04/13 13:45:17;;;;;;;8.02;3.00;;;;;;;;;;6271276;22;20168;-88
2022/04/13 13:48:25;;;;;;;7.18;3.08;;;;;;;;;;6273546;22;20165;-89
2022/04/13 13:51:38;;;;;;;9.10;3.78;;;;;;;;;;6274835;22;20530;-88
2022/04/13 13:54:43;;;;;;;7.82;3.30;;;;;;;;;;6275361;22;20153;-89
2022/04/13 13:57:48;;;;;;;11.55;3.28;;;;;;;;;;6274852;22;20165;-88
2022/04/13 14:00:54;;;;;;;7.18;3.25;;;;;;;;;;6273920;22;20177;-89
2022/04/13 14:04:00;;;;;;;8.05;3.05;;;;;;;;;;6272489;22;20239;-88
2022/04/13 14:07:10;;;;;;;10.40;3.17;;;;;;;;;;6272530;22;20181;-89
2022/04/13 14:10:15;;;;;;;6.38;3.47;;;;;;;;;;6273636;22;20188;-88
2022/04/13 14:13:20;;;;;;;7.30;2.90;;;;;;;;;;6271418;22;20208;-87
2022/04/13 14:16:26;;;;;;;6.70;2.80;;;;;;;;;;6271047;22;20188;-88
2022/04/13 14:19:33;;;;;;;9.90;2.85;;;;;;;;;;6272606;22;20165;-88
2022/04/13 14:22:40;;;;;;;6.10;2.60;;;;;;;;;;6270852;22;20173;-89
2022/04/13 14:25:45;;;;;;;10.25;3.20;;;;;;;;;;6269414;22;20184;-88
2022/04/13 14:28:50;;;;;;;8.02;3.20;;;;;;;;;;6270487;22;20177;-87
2022/04/13 14:31:55;;;;;;;7.38;2.72;;;;;;;;;;6269455;22;20188;-86
2022/04/13 14:35:01;;;;;;;6.95;3.35;;;;;;;;;;6269803;22;20230;-88
2022/04/13 14:38:07;;;;;;;7.15;2.75;;;;;;;;;;6269522;22;20165;-88
2022/04/13 14:41:12;;;;;;;8.43;3.20;;;;;;;;;;6270481;22;20177;-88
2022/04/13 14:44:18;;;;;;;7.85;3.42;;;;;;;;;;6268813;22;20169;-89
2022/04/13 14:47:23;;;;;;;7.22;3.80;;;;;;;;;;6277234;22;20149;-87
2022/04/13 14:50:29;;;;;;;9.88;3.30;;;;;;;;;;6276313;22;20205;-89
2022/04/13 14:53:36;;;;;;;6.90;2.83;;;;;;;;;;6275165;22;20172;-90
2022/04/13 14:56:41;;;;;;;8.20;3.25;;;;;;;;;;6272417;22;20161;-89
2022/04/13 14:59:46;;;;;;;10.23;3.05;;;;;;;;;;6275035;22;20259;-90
2022/04/13 15:02:51;;;;;;;12.15;2.67;;;;;;;;;;6271875;22;20161;-88
2022/04/13 15:05:56;;;;;;;8.88;2.95;;;;;;;;;;6271616;22;20589;-88
2022/04/13 15:09:05;;;;;;;8.25;2.72;;;;;;;;;;6274664;22;20212;-89
2022/04/13 15:12:11;;;;;;;7.85;2.67;;;;;;;;;;6276273;22;20209;-88
2022/04/13 15:15:16;;;;;;;8.23;3.28;;;;;;;;;;6272441;22;20165;-89
2022/04/13 15:18:22;;;;;;;5.65;2.53;;;;;;;;;;6270206;22;20157;-87
2022/04/13 15:21:27;;;;;;;8.63;2.92;;;;;;;;;;6271658;22;20637;-89
2022/04/13 15:24:35;;;;;;;10.18;2.78;;;;;;;;;;6271277;22;20166;-88
2022/04/13 15:27:46;;;;;;;5.20;2.67;;;;;;;;;;6272614;22;20242;-89
2022/04/13 15:31:00;;;;;;;9.65;2.85;;;;;;;;;;6273740;22;20189;-89
2022/04/13 15:34:07;;;;;;;5.40;2.40;;;;;;;;;;6296019;22;20173;-88
2022/04/13 15:37:12;;;;;;;10.18;2.80;;;;;;;;;;6270075;22;20212;-89
2022/04/13 15:40:19;;;;;;;5.30;2.45;;;;;;;;;;6269797;22;20290;-90
2022/04/13 15:43:24;;;;;;;5.95;2.30;;;;;;;;;;6271972;22;20257;-89
2022/04/13 15:46:30;;;;;;;7.13;2.83;;;;;;;;;;6273293;22;20261;-87
2022/04/13 15:49:35;;;;;;;15.63;3.10;;;;;;;;;;6272043;22;20170;-90
2022/04/13 15:52:42;;;;;;;10.73;2.80;;;;;;;;;;6270926;22;20190;-89
2022/04/13 15:55:51;;;;;;;7.90;2.67;;;;;;;;;;6275261;22;20173;-89
2022/04/13 15:58:57;;;;;;;5.95;2.97;;;;;;;;;;6275438;22;20234;-88
2022/04/13 16:02:08;;;;;;;5.47;2.78;;;;;;;;;;6275481;22;20166;-88
2022/04/13 16:05:18;;;;;;;7.57;2.70;;;;;;;;;;6277822;22;20169;-88
2022/04/13 16:08:24;;;;;;;7.25;2.65;;;;;;;;;;6277412;22;20166;-86
2022/04/13 16:11:33;;;;;;;7.63;2.70;;;;;;;;;;6278413;22;20263;-88
2022/04/13 16:14:41;;;;;;;7.25;3.08;;;;;;;;;;6278215;22;20621;-86
2022/04/13 16:17:49;;;;;;;9.38;3.20;;;;;;;;;;6278103;22;20280;-90
2022/04/13 16:20:54;;;;;;;7.60;3.10;;;;;;;;;;6277485;22;20157;-88
2022/04/13 16:24:00;;;;;;;10.60;3.05;;;;;;;;;;6276353;22;20189;-89
2022/04/13 16:27:07;;;;;;;8.50;2.78;;;;;;;;;;6278552;22;20161;-89
2022/04/13 16:34:01;;;;;;;12.30;2.95;;;;;;;;;;6295779;22;20177;-88
2022/04/13 16:37:06;;;;;;;21.23;3.47;;;;;;;;;;6279711;22;20217;-90
2022/04/13 16:40:13;;;;;;;15.40;3.38;;;;;;;;;;6276872;22;20166;-88
2022/04/13 16:43:20;;;;;;;6.95;3.10;;;;;;;;;;6276855;22;20236;-87
2022/04/13 16:46:26;;;;;;;16.38;4.47;;;;;;;;;;6276147;22;20712;-87
2022/04/13 16:49:33;;;;;;;9.30;3.80;;;;;;;;;;6274729;22;20759;-89
2022/04/13 16:52:39;;;;;;;10.32;3.60;;;;;;;;;;6277271;22;20217;-89
2022/04/13 16:55:45;;;;;;;14.10;4.20;;;;;;;;;;6276817;22;20166;-88
2022/04/13 16:58:52;;;;;;;17.13;3.47;;;;;;;;;;6276571;22;20226;-89
2022/04/13 17:01:58;;;;;;;16.13;4.30;;;;;;;;;;6273442;22;20169;-89
2022/04/13 17:05:04;;;;;;;11.63;4.70;;;;;;;;;;6275307;22;20149;-87
2022/04/13 17:08:10;;;;;;;10.80;4.25;;;;;;;;;;6276361;22;20155;-89
2022/04/13 17:11:17;;;;;;;8.48;3.80;;;;;;;;;;6276219;22;20197;-88
2022/04/13 17:14:24;;;;;;;9.13;3.28;;;;;;;;;;6276623;22;20186;-86
2022/04/13 17:17:31;;;;;;;13.93;3.63;;;;;;;;;;6275570;22;20166;-89
2022/04/13 17:20:39;;;;;;;12.00;3.60;;;;;;;;;;6273695;22;20542;-86
2022/04/13 17:23:44;;;;;;;13.18;3.58;;;;;;;;;;6274185;22;20244;-88
2022/04/13 17:26:50;;;;;;;10.73;3.78;;;;;;;;;;6273963;22;20292;-90
2022/04/13 17:29:59;;;;;;;13.15;4.93;;;;;;;;;;6274338;22;20177;-88
2022/04/13 17:33:06;;;;;;;13.02;4.28;;;;;;;;;;6274709;22;20637;-88
2022/04/13 17:36:15;;;;;;;14.90;6.78;;;;;;;;;;6272954;22;20170;-89
2022/04/13 17:39:20;;;;;;;10.57;4.07;;;;;;;;;;6273365;22;20169;-87
2022/04/13 17:42:26;;;;;;;13.93;4.20;;;;;;;;;;6273983;22;20153;-87
2022/04/13 17:45:36;;;;;;;16.58;4.13;;;;;;;;;;6291896;22;20170;-87
2022/04/13 17:48:41;;;;;;;10.35;4.63;;;;;;;;;;6275392;22;20181;-89
2022/04/13 17:51:47;;;;;;;21.02;5.85;;;;;;;;;;6276363;22;20322;-88
2022/04/13 17:54:52;;;;;;;24.30;5.13;;;;;;;;;;6274246;22;20166;-88
2022/04/13 17:57:57;;;;;;;42.13;6.35;;;;;;;;;;6271498;22;20232;-86
2022/04/13 18:01:05;;;;;;;17.42;4.88;;;;;;;;;;6272743;22;20209;-89
2022/04/13 18:04:10;;;;;;;18.08;5.13;;;;;;;;;;6274150;22;20168;-87
2022/04/13 18:07:15;;;;;;;13.38;4.85;;;;;;;;;;6274452;22;20645;-88
2022/04/13 18:10:21;;;;;;;24.63;5.47;;;;;;;;;;6293715;22;20795;-87
2022/04/13 18:13:26;;;;;;;18.65;4.82;;;;;;;;;;6275202;22;20170;-87
2022/04/13 18:16:33;;;;;;;23.23;6.55;;;;;;;;;;6276925;22;20149;-88
2022/04/13 18:19:39;;;;;;;23.85;7.57;;;;;;;;;;6275364;22;20157;-87
2022/04/13 18:22:44;;;;;;;17.58;7.57;;;;;;;;;;6275087;22;20230;-89
2022/04/13 18:25:50;;;;;;;15.07;5.28;;;;;;;;;;6274218;22;20233;-87
2022/04/13 18:28:57;;;;;;;14.38;4.78;;;;;;;;;;6279596;22;20166;-87
2022/04/13 18:32:33;;;;;;;32.08;5.35;;;;;;;;;;6275438;22;20182;-86
2022/04/13 18:35:40;;;;;;;15.60;5.40;;;;;;;;;;6279146;22;20212;-88
2022/04/13 18:38:46;;;;;;;15.30;5.53;;;;;;;;;;6277143;22;20180;-87
2022/04/13 18:41:52;;;;;;;17.13;5.78;;;;;;;;;;6276541;22;20170;-88
2022/04/13 18:48:23;;;;;;;13.07;6.55;;;;;;;;;;6279199;22;20182;-89
2022/04/13 18:51:29;;;;;;;16.92;6.97;;;;;;;;;;6275024;22;20173;-88